Time;durP1;ratioP1;P1;durP2;ratioP2;P2;SDS_P1;SDS_P2;PMS_P1;PMS_P2;Temp;Humidity;BMP_temperature;BMP_pressure;BME280_temperature;BME280_humidity;BME280_pressure;Samples;Min_cycle;Max_cycle;Signal;HPM_P1;HPM_P2
2021/11/13 00:00:07;;;;;;;24.42;9.93;;;;;;;6.50;90.86;92782.00;5041104;28;20045;-90
2021/11/13 00:03:24;;;;;;;25.50;10.27;;;;;;;6.49;90.47;92777.06;5040431;28;20413;-91
2021/11/13 00:06:33;;;;;;;24.15;9.75;;;;;;;6.51;90.72;92785.38;5050895;28;20044;-92
2021/11/13 00:09:22;;;;;;;27.27;11.70;;;;;;;6.42;90.49;92775.47;5022911;28;20040;-91
2021/11/13 00:12:27;;;;;;;25.83;10.70;;;;;;;6.41;90.62;92775.72;5017860;28;20125;-92
2021/11/13 00:18:39;;;;;;;;;;;;;;;;;;;;;
2021/11/13 00:21:15;;;;;;;27.35;10.52;;;;;;;6.38;90.71;92774.41;5035788;28;20033;-92
2021/11/13 00:23:51;;;;;;;23.52;10.23;;;;;;;6.44;91.05;92788.22;5019614;28;20114;-91
2021/11/13 00:26:30;;;;;;;;;;;;;;;;;;;;;
2021/11/13 00:29:04;;;;;;;25.15;10.30;;;;;;;6.38;91.19;92771.03;5052415;28;20394;-91
2021/11/13 00:31:54;;;;;;;;;;;;;;;;;;;;;
2021/11/13 00:34:48;;;;;;;28.48;10.80;;;;;;;6.37;91.36;92778.06;5053420;28;20082;-92
2021/11/13 00:37:57;;;;;;;28.25;10.68;;;;;;;6.33;91.16;92771.78;5024305;28;20389;-91
2021/11/13 00:40:56;;;;;;;;;;;;;;;;;;;;;
2021/11/13 00:43:30;;;;;;;28.42;10.85;;;;;;;6.29;91.30;92775.91;5055392;28;20069;-91
2021/11/13 00:46:36;;;;;;;24.23;10.07;;;;;;;6.30;91.63;92779.28;5052231;28;20048;-91
2021/11/13 00:49:24;;;;;;;;;;;;;;;;;;;;;
2021/11/13 00:52:37;;;;;;;;;;;;;;;;;;;;;
2021/11/13 00:55:48;;;;;;;;;;;;;;;;;;;;;
2021/11/13 00:58:28;;;;;;;29.70;13.13;;;;;;;6.32;91.95;92775.41;5035449;28;20059;-92
2021/11/13 01:01:10;;;;;;;32.42;13.55;;;;;;;6.30;92.26;92772.28;5037152;28;20040;-91
2021/11/13 01:04:19;;;;;;;39.30;12.73;;;;;;;6.33;92.45;92777.00;5019550;28;20493;-90
2021/11/13 01:06:59;;;;;;;32.85;11.80;;;;;;;6.31;92.28;92773.84;5034679;28;20045;-91
2021/11/13 01:09:40;;;;;;;;;;;;;;;;;;;;;
2021/11/13 01:12:26;;;;;;;35.58;13.60;;;;;;;6.34;92.73;92768.13;5022243;28;20107;-91
2021/11/13 01:18:42;;;;;;;30.98;12.98;;;;;;;6.46;92.50;92784.34;5071633;28;20485;-92
2021/11/13 01:21:36;;;;;;;43.63;13.60;;;;;;;6.47;92.54;92783.28;5067531;28;20071;-92
2021/11/13 01:24:41;;;;;;;37.22;14.40;;;;;;;6.42;92.31;92775.47;5046316;28;20495;-91
2021/11/13 01:30:41;;;;;;;29.35;12.52;;;;;;;6.50;92.40;92783.81;5044952;28;20044;-91
2021/11/13 01:33:43;;;;;;;30.73;11.98;;;;;;;6.52;92.64;92779.16;5043314;28;20057;-91
2021/11/13 01:37:00;;;;;;;;;;;;;;;;;;;;;
2021/11/13 01:39:43;;;;;;;36.20;13.32;;;;;;;6.61;92.54;92777.63;5039225;28;20037;-91
2021/11/13 01:42:37;;;;;;;34.05;13.27;;;;;;;6.63;92.68;92771.13;5047546;28;20036;-91
2021/11/13 01:45:44;;;;;;;37.05;14.23;;;;;;;6.72;92.75;92762.84;5058955;28;20079;-92
2021/11/13 01:48:52;;;;;;;;;;;;;;;;;;;;;
2021/11/13 01:51:44;;;;;;;41.00;13.68;;;;;;;6.76;92.95;92748.28;5057269;28;20083;-91
2021/11/13 01:54:32;;;;;;;;;;;;;;;;;;;;;
2021/11/13 01:57:34;;;;;;;;;;;;;;;;;;;;;
2021/11/13 02:00:44;;;;;;;;;;;;;;;;;;;;;
2021/11/13 02:03:58;;;;;;;34.58;12.25;;;;;;;6.94;91.68;92736.63;5096382;28;20055;-92
2021/11/13 02:06:40;;;;;;;30.13;12.93;;;;;;;7.00;91.62;92733.78;5050149;28;20044;-91
2021/11/13 02:09:30;;;;;;;;;;;;;;;;;;;;;
2021/11/13 02:12:26;;;;;;;41.78;15.27;;;;;;;7.14;92.51;92738.47;5057756;28;20037;-90
2021/11/13 02:15:01;;;;;;;31.92;12.73;;;;;;;7.12;92.63;92736.13;5044044;28;20591;-92
2021/11/13 02:17:58;;;;;;;35.38;13.48;;;;;;;7.16;92.16;92734.59;5042711;28;20063;-91
2021/11/13 02:20:58;;;;;;;30.48;13.43;;;;;;;7.12;91.85;92723.13;5054145;28;20047;-91
2021/11/13 02:26:37;;;;;;;29.52;13.27;;;;;;;7.17;90.92;92728.34;5047610;28;20045;-91
2021/11/13 02:32:37;;;;;;;;;;;;;;;;;;;;;
2021/11/13 02:35:50;;;;;;;31.58;13.07;;;;;;;7.15;91.98;92704.38;5042736;28;20379;-90
2021/11/13 02:38:36;;;;;;;;;;;;;;;;;;;;;
2021/11/13 02:41:14;;;;;;;29.73;12.23;;;;;;;7.08;91.49;92680.41;5037703;28;20029;-91
2021/11/13 02:43:56;;;;;;;33.25;12.98;;;;;;;7.14;91.84;92695.00;5021060;28;20033;-91
2021/11/13 02:47:24;;;;;;;;;;;;;;;;;;;;;
2021/11/13 02:50:15;;;;;;;;;;;;;;;;;;;;;
2021/11/13 02:53:23;;;;;;;28.25;12.70;;;;;;;6.88;90.95;92675.97;5044605;28;20029;-91
2021/11/13 02:56:23;;;;;;;;;;;;;;;;;;;;;
2021/11/13 02:59:12;;;;;;;23.42;10.70;;;;;;;6.73;91.04;92671.50;5053106;28;20067;-92
2021/11/13 03:01:53;;;;;;;21.88;8.45;;;;;;;6.63;90.45;92674.09;5021818;28;20058;-92
2021/11/13 03:04:41;;;;;;;14.85;7.50;;;;;;;6.56;89.89;92665.78;5056764;28;20384;-91
2021/11/13 03:07:35;;;;;;;;;;;;;;;;;;;;;
2021/11/13 03:10:58;;;;;;;18.42;8.57;;;;;;;6.45;89.83;92668.31;5045181;28;20036;-92
2021/11/13 03:16:34;;;;;;;14.80;6.32;;;;;;;6.41;89.83;92675.06;5072667;28;20040;-92
2021/11/13 03:19:47;;;;;;;;;;;;;;;;;;;;;
2021/11/13 03:22:45;;;;;;;;;;;;;;;;;;;;;
2021/11/13 03:26:10;;;;;;;20.88;8.15;;;;;;;6.34;90.57;92676.34;5054130;28;20037;-93
2021/11/13 03:29:21;;;;;;;15.70;6.80;;;;;;;6.33;90.27;92678.19;5038410;28;20039;-91
2021/11/13 03:32:17;;;;;;;14.83;6.50;;;;;;;6.27;90.26;92666.19;5036820;28;20056;-91
2021/11/13 03:35:17;;;;;;;19.58;7.80;;;;;;;6.32;89.98;92678.44;5019871;28;20306;-92
2021/11/13 03:37:59;;;;;;;14.93;7.15;;;;;;;6.27;90.28;92671.41;5036768;28;20127;-91
2021/11/13 03:41:24;;;;;;;18.90;7.07;;;;;;;6.34;90.09;92679.72;5030597;28;20405;-91
2021/11/13 03:44:20;;;;;;;15.90;7.25;;;;;;;6.21;89.67;92659.41;5016530;28;20381;-90
2021/11/13 03:54:10;;;;;;;18.08;6.82;;;;;;;6.14;89.97;92679.66;5050269;28;20067;-92
2021/11/13 03:56:46;;;;;;;17.13;7.78;;;;;;;6.11;90.07;92673.16;5035751;28;20037;-92
2021/11/13 03:59:23;;;;;;;17.02;7.45;;;;;;;6.20;90.40;92676.81;5019648;28;20106;-92
2021/11/13 04:02:25;;;;;;;22.98;8.10;;;;;;;6.23;90.47;92678.13;5037908;28;20039;-90
2021/11/13 04:05:01;;;;;;;;;;;;;;;;;;;;;
2021/11/13 04:07:48;;;;;;;;;;;;;;;;;;;;;
2021/11/13 04:10:53;;;;;;;17.42;8.15;;;;;;;6.23;89.96;92665.91;5053293;28;20041;-92
2021/11/13 04:13:38;;;;;;;;;;;;;;;;;;;;;
2021/11/13 04:16:41;;;;;;;17.25;7.82;;;;;;;6.18;90.07;92659.94;5052446;28;20124;-91
2021/11/13 04:19:18;;;;;;;20.85;7.13;;;;;;;6.17;90.47;92659.16;5017544;28;20490;-91
2021/11/13 04:21:52;;;;;;;20.25;8.38;;;;;;;6.16;90.69;92657.56;5004652;28;20057;-91
2021/11/13 04:25:00;;;;;;;15.75;6.90;;;;;;;6.17;90.64;92668.75;5027351;28;20032;-92
2021/11/13 04:28:01;;;;;;;;;;;;;;;;;;;;;
2021/11/13 04:30:55;;;;;;;19.58;7.72;;;;;;;6.17;90.72;92663.53;5048586;28;20399;-91
2021/11/13 04:33:34;;;;;;;17.92;6.80;;;;;;;6.17;90.65;92661.75;5017804;28;20141;-92
2021/11/13 04:39:06;;;;;;;15.35;8.00;;;;;;;6.18;90.34;92665.91;5033675;28;20520;-91
2021/11/13 04:41:48;;;;;;;13.63;6.43;;;;;;;6.26;90.35;92675.03;5017730;28;20073;-91
2021/11/13 04:44:44;;;;;;;;;;;;;;;;;;;;;
2021/11/13 04:47:38;;;;;;;;;;;;;;;;;;;;;
2021/11/13 04:50:33;;;;;;;13.15;6.30;;;;;;;6.21;89.90;92659.41;5069439;28;20036;-92
2021/11/13 04:53:27;;;;;;;17.88;6.35;;;;;;;6.20;90.25;92663.06;5051561;28;20116;-91
2021/11/13 04:56:45;;;;;;;;;;;;;;;;;;;;;
2021/11/13 05:00:15;;;;;;;;;;;;;;;;;;;;;
2021/11/13 05:02:57;;;;;;;15.23;6.55;;;;;;;6.19;90.64;92669.28;5039349;28;20124;-91
2021/11/13 05:05:46;;;;;;;15.60;6.93;;;;;;;6.27;90.01;92675.81;5035550;28;20045;-91
2021/11/13 05:08:49;;;;;;;12.50;5.88;;;;;;;6.25;89.96;92670.88;5055390;28;20403;-92
2021/11/13 05:11:19;;;;;;;19.85;7.75;;;;;;;6.23;90.15;92667.72;5009381;28;20064;-91
2021/11/13 05:14:13;;;;;;;22.17;9.20;;;;;;;6.28;90.42;92674.78;5011311;28;20072;-92
2021/11/13 05:17:21;;;;;;;20.48;8.07;;;;;;;6.29;90.60;92671.91;5030234;28;20047;-90
2021/11/13 05:20:29;;;;;;;18.92;9.20;;;;;;;6.28;91.17;92667.75;5021926;28;20076;-93
2021/11/13 05:23:04;;;;;;;23.60;10.10;;;;;;;6.28;91.47;92661.78;5018243;28;20055;-92
2021/11/13 05:25:48;;;;;;;29.20;11.38;;;;;;;6.35;91.38;92664.91;5038917;28;20056;-91
2021/11/13 05:28:35;;;;;;;;;;;;;;;;;;;;;
2021/11/13 05:32:00;;;;;;;;;;;;;;;;;;;;;
2021/11/13 05:35:45;;;;;;;33.25;11.93;;;;;;;6.28;91.01;92665.16;5038039;28;20053;-92
2021/11/13 05:38:32;;;;;;;27.33;11.82;;;;;;;6.15;91.29;92656.03;5055780;28;20040;-91
2021/11/13 05:41:23;;;;;;;28.58;11.52;;;;;;;6.16;91.73;92662.00;5023602;28;20033;-91
2021/11/13 05:44:05;;;;;;;21.70;10.82;;;;;;;6.07;91.49;92647.91;5027082;28;20071;-92
2021/11/13 05:46:52;;;;;;;;;;;;;;;;;;;;;
2021/11/13 05:49:37;;;;;;;17.13;7.07;;;;;;;6.00;91.56;92656.72;5024098;28;20046;-91
2021/11/13 05:52:31;;;;;;;15.63;6.15;;;;;;;5.96;91.20;92655.66;5038519;28;20121;-90
2021/11/13 05:55:23;;;;;;;;;;;;;;;;;;;;;
2021/11/13 05:58:04;;;;;;;19.63;8.18;;;;;;;6.02;90.85;92665.06;5038781;28;20064;-91
2021/11/13 06:00:52;;;;;;;17.38;7.53;;;;;;;5.96;90.78;92647.88;5053996;28;20110;-92
2021/11/13 06:04:05;;;;;;;;;;;;;;;;;;;;;
2021/11/13 06:07:07;;;;;;;21.15;8.30;;;;;;;6.01;90.89;92660.91;5044502;28;20045;-92
2021/11/13 06:13:41;;;;;;;;;;;;;;;;;;;;;
2021/11/13 06:16:35;;;;;;;24.58;9.85;;;;;;;6.10;92.08;92657.81;5029870;28;20120;-91
2021/11/13 06:19:52;;;;;;;;;;;;;;;;;;;;;
2021/11/13 06:22:54;;;;;;;27.35;10.55;;;;;;;6.16;92.42;92654.97;5025261;28;20033;-91
2021/11/13 06:25:39;;;;;;;30.45;12.18;;;;;;;6.31;92.05;92664.66;5050821;28;20036;-91
2021/11/13 06:28:54;;;;;;;;;;;;;;;;;;;;;
2021/11/13 06:31:58;;;;;;;;;;;;;;;;;;;;;
2021/11/13 06:34:42;;;;;;;;;;;;;;;;;;;;;
2021/11/13 06:37:24;;;;;;;35.03;10.80;;;;;;;6.38;91.86;92662.59;5024643;28;20037;-92
2021/11/13 06:43:41;;;;;;;28.90;10.95;;;;;;;6.51;91.88;92673.53;5046790;28;20040;-92
2021/11/13 06:46:27;;;;;;;30.13;10.68;;;;;;;6.54;92.30;92680.84;5016431;28;20038;-92
2021/11/13 06:49:19;;;;;;;23.98;10.68;;;;;;;6.60;92.36;92677.22;5010572;28;20050;-92
2021/11/13 06:52:16;;;;;;;31.02;11.95;;;;;;;6.63;92.07;92679.31;5046397;28;20040;-90
2021/11/13 06:55:08;;;;;;;25.75;10.80;;;;;;;6.67;91.81;92673.34;5008465;28;20057;-91
2021/11/13 06:57:40;;;;;;;31.88;11.63;;;;;;;6.79;92.34;92683.50;5019179;28;20500;-90
2021/11/13 07:00:35;;;;;;;;;;;;;;;;;;;;;
2021/11/13 07:03:55;;;;;;;34.45;11.13;;;;;;;6.91;92.87;92672.06;5045490;28;20021;-91
2021/11/13 07:07:13;;;;;;;22.30;9.23;;;;;;;7.02;91.58;92674.41;5033918;28;20049;-90
2021/11/13 07:10:06;;;;;;;25.42;10.77;;;;;;;7.05;90.76;92679.13;5035008;28;20045;-90
2021/11/13 07:13:06;;;;;;;25.52;11.00;;;;;;;7.13;91.44;92679.66;5028744;28;20048;-90
2021/11/13 07:15:51;;;;;;;;;;;;;;;;;;;;;
2021/11/13 07:19:09;;;;;;;;;;;;;;;;;;;;;
2021/11/13 07:22:37;;;;;;;;;;;;;;;;;;;;;
2021/11/13 07:25:42;;;;;;;;;;;;;;;;;;;;;
2021/11/13 07:28:30;;;;;;;;;;;;;;;;;;;;;
2021/11/13 07:31:27;;;;;;;22.20;9.57;;;;;;;7.47;91.41;92695.53;5049373;28;20044;-90
2021/11/13 07:34:19;;;;;;;26.95;9.90;;;;;;;7.44;90.81;92686.41;5018569;28;20048;-90
2021/11/13 07:36:57;;;;;;;25.42;10.60;;;;;;;7.49;90.46;92694.22;5014578;28;20072;-90
2021/11/13 07:39:28;;;;;;;26.58;10.32;;;;;;;7.54;90.00;92692.66;5029599;28;20040;-90
2021/11/13 07:42:33;;;;;;;18.88;8.38;;;;;;;7.59;89.77;92700.47;5044819;28;20481;-89
2021/11/13 07:45:48;;;;;;;20.33;9.10;;;;;;;7.61;90.84;92706.19;5048154;28;20045;-90
2021/11/13 07:48:37;;;;;;;15.95;8.52;;;;;;;7.65;90.07;92707.25;5035404;28;20036;-91
2021/11/13 07:51:41;;;;;;;;;;;;;;;;;;;;;
2021/11/13 07:54:34;;;;;;;23.42;9.93;;;;;;;7.75;89.69;92699.41;5046171;28;20123;-89
2021/11/13 07:57:13;;;;;;;;;;;;;;;;;;;;;
2021/11/13 08:00:08;;;;;;;;;;;;;;;;;;;;;
2021/11/13 08:03:28;;;;;;;;;;;;;;;;;;;;;
2021/11/13 08:06:25;;;;;;;;;;;;;;;;;;;;;
2021/11/13 08:09:16;;;;;;;;;;;;;;;;;;;;;
2021/11/13 08:12:02;;;;;;;19.77;8.25;;;;;;;7.96;88.01;92713.19;5035254;28;20051;-90
2021/11/13 08:15:08;;;;;;;;;;;;;;;;;;;;;
2021/11/13 08:18:23;;;;;;;28.42;9.90;;;;;;;8.07;87.39;92704.31;5035714;28;20041;-90
2021/11/13 08:24:37;;;;;;;;;;;;;;;;;;;;;
2021/11/13 08:27:32;;;;;;;20.48;8.30;;;;;;;8.12;86.40;92706.13;5050731;28;20041;-91
2021/11/13 08:30:08;;;;;;;;;;;;;;;;;;;;;
2021/11/13 08:32:59;;;;;;;23.15;8.63;;;;;;;8.08;86.82;92705.88;5045518;28;20138;-91
2021/11/13 08:35:27;;;;;;;16.80;8.23;;;;;;;8.13;86.35;92703.25;5015496;28;20053;-90
2021/11/13 08:38:19;;;;;;;;;;;;;;;;;;;;;
2021/11/13 08:44:31;;;;;;;18.42;8.60;;;;;;;8.33;85.94;92697.19;5040814;28;20028;-91
2021/11/13 08:47:12;;;;;;;24.75;9.23;;;;;;;8.42;85.70;92705.28;5039198;28;20520;-91
2021/11/13 08:50:25;;;;;;;26.07;10.17;;;;;;;8.45;85.37;92701.34;5025487;28;20044;-92
2021/11/13 08:53:53;;;;;;;;;;;;;;;;;;;;;
2021/11/13 08:56:33;;;;;;;22.77;9.85;;;;;;;8.54;85.26;92710.97;5058707;28;20559;-91
2021/11/13 08:59:23;;;;;;;;;;;;;;;;;;;;;
2021/11/13 09:02:13;;;;;;;;;;;;;;;;;;;;;
2021/11/13 09:05:22;;;;;;;22.45;10.07;;;;;;;8.73;85.71;92707.75;5057118;28;20047;-92
2021/11/13 09:08:07;;;;;;;;;;;;;;;;;;;;;
2021/11/13 09:11:11;;;;;;;;;;;;;;;;;;;;;
2021/11/13 09:17:25;;;;;;;30.92;10.52;;;;;;;8.90;85.58;92695.13;5040308;28;20056;-92
2021/11/13 09:20:56;;;;;;;20.38;9.30;;;;;;;8.92;85.45;92682.59;5039702;28;20512;-92
2021/11/13 09:23:45;;;;;;;27.67;10.15;;;;;;;9.03;84.80;92682.50;5039093;28;20040;-93
2021/11/13 09:26:20;;;;;;;24.77;9.80;;;;;;;9.11;84.25;92679.34;5038586;28;20037;-92
2021/11/13 09:29:34;;;;;;;;;;;;;;;;;;;;;
2021/11/13 09:32:29;;;;;;;;;;;;;;;;;;;;;
2021/11/13 09:35:06;;;;;;;19.40;8.55;;;;;;;9.28;82.74;92671.91;5038068;28;20057;-91
2021/11/13 09:38:00;;;;;;;;;;;;;;;;;;;;;
2021/11/13 09:40:50;;;;;;;18.40;7.88;;;;;;;9.33;82.22;92669.25;5036707;28;20037;-92
2021/11/13 09:43:36;;;;;;;15.77;7.47;;;;;;;9.30;82.73;92663.78;5023459;28;20051;-93
2021/11/13 09:46:45;;;;;;;20.55;7.93;;;;;;;9.42;82.53;92672.06;5020599;28;20394;-92
2021/11/13 09:49:26;;;;;;;18.05;7.53;;;;;;;9.34;81.65;92667.41;5018988;28;20041;-92
2021/11/13 09:52:17;;;;;;;18.58;8.90;;;;;;;9.38;81.15;92658.75;5035065;28;20045;-94
2021/11/13 09:55:03;;;;;;;18.02;8.20;;;;;;;9.49;80.84;92663.91;5034496;28;20036;-92
2021/11/13 09:58:15;;;;;;;19.48;7.97;;;;;;;9.45;80.19;92662.88;5006273;28;20064;-92
2021/11/13 10:01:54;;;;;;;;;;;;;;;;;;;;;
2021/11/13 10:04:28;;;;;;;18.52;7.97;;;;;;;9.63;79.16;92669.25;5038345;28;20029;-92
2021/11/13 10:07:23;;;;;;;19.35;7.90;;;;;;;9.63;79.40;92664.03;5035567;28;20140;-92
2021/11/13 10:10:12;;;;;;;20.60;8.73;;;;;;;9.58;78.81;92662.25;5036322;28;20029;-92
2021/11/13 10:13:19;;;;;;;;;;;;;;;;;;;;;
2021/11/13 10:16:10;;;;;;;13.05;6.63;;;;;;;9.78;76.72;92669.13;5026986;28;20045;-91
2021/11/13 10:22:40;;;;;;;16.15;7.20;;;;;;;9.68;76.53;92646.50;5053931;28;20402;-92
2021/11/13 10:26:01;;;;;;;17.60;7.28;;;;;;;9.74;76.89;92657.66;5013583;28;20060;-92
2021/11/13 10:32:16;;;;;;;;;;;;;;;;;;;;;
2021/11/13 10:38:52;;;;;;;;;;;;;;;;;;;;;
2021/11/13 10:42:53;;;;;;;19.27;7.88;;;;;;;9.71;78.72;92634.69;5042668;28;20065;-93
2021/11/13 10:45:35;;;;;;;;;;;;;;;;;;;;;
2021/11/13 10:48:36;;;;;;;18.27;7.82;;;;;;;9.71;79.08;92621.63;5054119;28;20033;-92
2021/11/13 10:52:04;;;;;;;12.25;6.43;;;;;;;9.33;79.89;92635.28;5034930;28;20052;-92
2021/11/13 10:55:12;;;;;;;21.00;7.68;;;;;;;9.06;81.91;92619.31;5034589;28;20041;-92
2021/11/13 10:58:14;;;;;;;12.82;6.88;;;;;;;9.01;81.95;92627.19;5006486;28;20049;-92
2021/11/13 11:01:33;;;;;;;12.73;6.82;;;;;;;9.06;81.74;92609.63;5028127;28;20046;-92
2021/11/13 11:05:10;;;;;;;23.60;7.70;;;;;;;9.18;80.39;92620.50;5014834;28;20054;-92
2021/11/13 11:09:01;;;;;;;15.18;7.53;;;;;;;9.18;81.23;92610.06;4997277;28;20152;-93
2021/11/13 11:12:06;;;;;;;16.58;6.97;;;;;;;9.02;81.46;92592.97;4995826;28;20045;-92
2021/11/13 11:14:57;;;;;;;;;;;;;;;;;;;;;
2021/11/13 11:17:37;;;;;;;14.93;7.10;;;;;;;9.05;82.35;92591.63;5037887;28;20044;-92
2021/11/13 11:20:18;;;;;;;14.73;7.07;;;;;;;9.13;81.32;92589.22;5031769;28;20033;-91
2021/11/13 11:22:57;;;;;;;15.23;7.18;;;;;;;9.28;80.36;92583.09;5017542;28;20481;-92
2021/11/13 11:33:09;;;;;;;20.00;8.00;;;;;;;9.01;79.79;92575.75;5048940;28;20037;-90
2021/11/13 11:36:04;;;;;;;;;;;;;;;;;;;;;
2021/11/13 11:39:13;;;;;;;;;;;;;;;;;;;;;
2021/11/13 11:42:23;;;;;;;;;;;;;;;;;;;;;
2021/11/13 11:45:37;;;;;;;20.65;7.75;;;;;;;9.00;79.89;92558.50;5049614;28;20114;-91
2021/11/13 11:48:14;;;;;;;18.58;8.70;;;;;;;9.04;79.64;92558.75;5043556;28;20103;-91
2021/11/13 11:51:05;;;;;;;16.58;7.20;;;;;;;9.08;80.46;92554.53;5032963;28;20478;-92
2021/11/13 11:54:07;;;;;;;18.05;8.32;;;;;;;9.08;80.95;92564.97;5019287;28;20033;-92
2021/11/13 11:56:58;;;;;;;20.33;9.02;;;;;;;8.99;80.58;92548.34;5024723;28;20039;-93
2021/11/13 12:00:19;;;;;;;20.02;8.75;;;;;;;9.00;80.74;92552.50;5019629;28;20045;-94
2021/11/13 12:10:52;;;;;;;;;;;;;;;9.09;81.21;92548.25;5040716;23;20107;-79
2021/11/13 12:13:26;;;;;;;25.25;9.45;;;;;;;9.15;81.35;92537.47;5032770;28;20279;-79
2021/11/13 12:15:58;;;;;;;24.33;9.73;;;;;;;9.23;81.13;92538.75;5031343;28;20437;-79
2021/11/13 12:18:27;;;;;;;32.50;11.15;;;;;;;9.29;81.17;92536.84;5032144;28;20453;-79
2021/11/13 12:21:11;;;;;;;23.70;8.10;;;;;;;9.35;81.11;92536.50;5029631;28;20021;-77
2021/11/13 12:23:51;;;;;;;23.95;9.40;;;;;;;9.27;81.33;92529.28;5015885;28;20037;-79
2021/11/13 12:26:21;;;;;;;23.73;10.05;;;;;;;9.17;81.84;92532.75;5009955;28;20040;-76
2021/11/13 12:28:46;;;;;;;23.45;10.18;;;;;;;9.08;83.03;92528.44;5017856;28;20079;-79
2021/11/13 12:31:20;;;;;;;26.30;10.70;;;;;;;9.09;82.84;92529.97;5030858;28;20475;-78
2021/11/13 12:34:08;;;;;;;29.83;11.07;;;;;;;9.10;82.91;92519.25;5014081;28;20541;-78
2021/11/13 12:37:00;;;;;;;23.08;10.82;;;;;;;9.20;82.88;92517.59;5028532;28;20483;-78
2021/11/13 12:39:39;;;;;;;28.40;11.55;;;;;;;9.30;82.31;92514.88;5030957;28;20491;-77
2021/11/13 12:42:12;;;;;;;33.08;12.07;;;;;;;9.36;82.16;92508.53;5031408;28;20033;-77
2021/11/13 12:44:57;;;;;;;35.40;11.52;;;;;;;9.48;81.09;92508.97;5013366;28;20033;-78
2021/11/13 12:47:26;;;;;;;27.05;11.63;;;;;;;9.51;80.65;92511.00;5030398;28;20084;-78
2021/11/13 12:49:58;;;;;;;26.83;11.18;;;;;;;9.56;80.80;92510.94;5029907;28;20045;-78
2021/11/13 12:52:45;;;;;;;33.13;11.98;;;;;;;9.48;81.09;92506.34;5026553;28;20039;-78
2021/11/13 12:55:17;;;;;;;27.00;11.90;;;;;;;9.62;81.68;92506.44;5010007;28;20033;-78
2021/11/13 12:58:02;;;;;;;;;;;;;;;9.67;81.03;92498.53;5029930;28;20388;-78
2021/11/13 13:00:31;;;;;;;28.20;11.50;;;;;;;9.63;81.01;92496.75;5025804;28;20076;-78
2021/11/13 13:02:57;;;;;;;25.40;11.20;;;;;;;9.66;80.59;92499.59;5034702;28;20041;-78
2021/11/13 13:05:23;;;;;;;31.13;11.55;;;;;;;9.50;81.37;92496.41;5019232;28;20065;-78
2021/11/13 13:07:56;;;;;;;26.45;11.32;;;;;;;9.35;82.10;92499.16;5030423;28;20036;-78
2021/11/13 13:10:24;;;;;;;28.08;11.68;;;;;;;9.30;82.43;92492.16;5006993;28;20129;-78
2021/11/13 13:13:11;;;;;;;34.03;11.68;;;;;;;9.31;82.21;92496.31;5031575;28;20510;-78
2021/11/13 13:15:50;;;;;;;28.17;11.63;;;;;;;9.40;81.43;92487.88;5028130;28;20036;-78
2021/11/13 13:18:16;;;;;;;21.52;10.23;;;;;;;9.24;82.31;92492.50;5012526;28;20048;-78
2021/11/13 13:20:44;;;;;;;38.50;12.32;;;;;;;9.45;82.62;92487.81;5012515;28;20127;-78
2021/11/13 13:23:12;;;;;;;28.48;11.68;;;;;;;9.37;82.54;92491.84;5048517;28;20048;-78
2021/11/13 13:25:42;;;;;;;29.02;12.07;;;;;;;9.26;83.39;92490.38;5012011;28;20032;-78
2021/11/13 13:28:08;;;;;;;27.15;11.82;;;;;;;9.18;83.21;92492.53;5030445;28;20037;-78
2021/11/13 13:30:35;;;;;;;25.88;12.45;;;;;;;9.13;83.75;92481.38;5031573;28;20034;-78
2021/11/13 13:33:02;;;;;;;29.17;11.65;;;;;;;9.16;83.78;92488.63;5033700;28;20048;-78
2021/11/13 13:35:30;;;;;;;28.83;11.18;;;;;;;9.20;83.87;92475.81;5000160;28;20037;-78
2021/11/13 13:38:01;;;;;;;27.73;12.23;;;;;;;9.24;83.87;92482.81;5032269;28;20029;-77
2021/11/13 13:40:51;;;;;;;36.33;12.57;;;;;;;9.31;82.76;92470.19;5033418;28;20083;-78
2021/11/13 13:43:25;;;;;;;28.20;11.93;;;;;;;9.43;83.19;92464.56;5035231;28;20116;-79
2021/11/13 13:46:09;;;;;;;36.40;12.65;;;;;;;9.25;82.97;92468.69;5017442;28;20121;-80
2021/11/13 13:48:43;;;;;;;28.48;12.15;;;;;;;9.28;83.55;92465.53;5015351;28;20402;-77
2021/11/13 13:51:23;;;;;;;30.83;13.50;;;;;;;9.27;83.77;92460.59;5013478;28;20081;-78
2021/11/13 13:53:54;;;;;;;26.48;12.23;;;;;;;9.26;84.18;92459.03;5015646;28;20036;-78
2021/11/13 13:56:33;;;;;;;33.95;12.43;;;;;;;9.29;83.93;92455.84;5033842;28;20483;-78
2021/11/13 13:59:01;;;;;;;34.45;13.18;;;;;;;9.32;84.09;92456.09;5031658;28;20053;-79
2021/11/13 14:01:29;;;;;;;31.48;13.02;;;;;;;9.34;84.54;92453.19;5035717;28;20041;-79
2021/11/13 14:04:06;;;;;;;30.42;12.27;;;;;;;9.38;84.93;92447.13;5034892;28;20041;-80
2021/11/13 14:06:32;;;;;;;27.00;11.73;;;;;;;9.43;84.65;92450.75;5007220;28;20564;-80
2021/11/13 14:08:58;;;;;;;29.90;10.50;;;;;;;9.45;84.06;92443.41;5018453;28;20120;-79
2021/11/13 14:11:25;;;;;;;23.67;11.27;;;;;;;9.48;83.76;92442.84;5000464;28;20139;-79
2021/11/13 14:13:52;;;;;;;32.10;11.18;;;;;;;9.32;84.06;92444.84;5014515;28;20140;-79
2021/11/13 14:16:18;;;;;;;33.47;16.55;;;;;;;9.06;86.93;92460.78;5000505;28;20069;-78
2021/11/13 14:18:46;;;;;;;28.70;12.43;;;;;;;9.11;86.59;92459.97;5013211;28;20033;-79
2021/11/13 14:21:12;;;;;;;28.40;12.02;;;;;;;9.17;85.73;92453.63;5012872;28;20036;-78
2021/11/13 14:23:41;;;;;;;34.10;12.45;;;;;;;9.12;86.44;92449.25;5012879;28;20041;-78
2021/11/13 14:26:10;;;;;;;26.85;12.68;;;;;;;9.05;85.32;92448.00;5014350;28;20506;-79
2021/11/13 14:28:41;;;;;;;28.20;11.90;;;;;;;9.04;84.93;92449.06;5014614;28;20030;-78
2021/11/13 14:31:17;;;;;;;33.80;14.68;;;;;;;8.92;84.97;92452.84;4996648;28;20438;-78
2021/11/13 14:33:59;;;;;;;35.13;12.70;;;;;;;8.94;84.79;92450.75;5014249;28;20180;-78
2021/11/13 14:36:29;;;;;;;28.15;11.80;;;;;;;8.76;85.88;92451.44;5013122;28;20038;-78
2021/11/13 14:39:15;;;;;;;32.47;11.60;;;;;;;8.77;86.50;92450.38;5012300;28;20045;-78
2021/11/13 14:41:53;;;;;;;35.67;12.05;;;;;;;8.75;86.25;92448.03;5002145;28;20037;-78
2021/11/13 14:44:21;;;;;;;26.80;11.43;;;;;;;8.80;86.39;92455.03;4998637;28;20037;-76
2021/11/13 14:46:51;;;;;;;29.05;12.77;;;;;;;8.81;86.56;92454.00;5011333;28;20033;-79
2021/11/13 14:49:23;;;;;;;30.25;13.88;;;;;;;8.83;86.27;92454.50;5006175;28;20038;-77
2021/11/13 14:51:51;;;;;;;37.88;15.15;;;;;;;8.84;86.59;92448.22;5007558;28;20033;-78
2021/11/13 14:54:19;;;;;;;31.25;12.68;;;;;;;8.86;86.28;92446.09;5006817;28;20180;-77
2021/11/13 14:56:48;;;;;;;43.85;14.88;;;;;;;8.87;86.06;92450.28;5010096;28;20025;-77
2021/11/13 14:59:24;;;;;;;31.77;12.25;;;;;;;8.88;85.44;92446.63;5015120;28;20072;-77
2021/11/13 15:01:52;;;;;;;33.28;14.52;;;;;;;8.90;85.45;92449.72;5011304;28;20042;-78
2021/11/13 15:04:26;;;;;;;32.95;13.48;;;;;;;8.89;85.55;92442.97;5011620;28;20042;-78
2021/11/13 15:07:02;;;;;;;28.90;12.77;;;;;;;8.87;86.01;92452.91;5010680;28;20033;-77
2021/11/13 15:09:33;;;;;;;33.60;12.48;;;;;;;8.86;86.06;92451.31;5011487;28;20479;-78
2021/11/13 15:12:00;;;;;;;23.40;11.00;;;;;;;8.86;86.08;92446.09;5028948;28;20406;-77
2021/11/13 15:14:30;;;;;;;27.30;11.60;;;;;;;8.83;85.54;92444.06;5030446;28;20068;-77
2021/11/13 15:16:58;;;;;;;26.08;11.18;;;;;;;8.83;86.11;92446.66;5030951;28;20039;-77
2021/11/13 15:19:23;;;;;;;27.52;11.80;;;;;;;8.79;86.76;92447.50;5029700;28;20041;-76
2021/11/13 15:21:50;;;;;;;28.50;11.60;;;;;;;8.85;87.02;92444.56;5029925;28;20041;-76
2021/11/13 15:24:25;;;;;;;27.08;12.15;;;;;;;8.86;87.40;92440.88;5037975;28;20415;-79
2021/11/13 15:26:54;;;;;;;34.08;13.43;;;;;;;8.80;87.10;92436.00;5033170;28;20398;-76
2021/11/13 15:29:23;;;;;;;28.83;12.15;;;;;;;8.80;87.25;92443.81;5032537;28;20072;-78
2021/11/13 15:31:53;;;;;;;42.95;20.98;;;;;;;8.65;88.16;92445.53;5030245;28;20033;-78
2021/11/13 15:34:30;;;;;;;44.97;16.35;;;;;;;8.51;88.44;92445.38;5031184;28;20083;-77
2021/11/13 15:37:00;;;;;;;33.50;15.50;;;;;;;8.47;88.96;92435.78;5033323;28;20414;-78
2021/11/13 15:39:28;;;;;;;45.53;17.58;;;;;;;8.37;89.35;92433.97;5036738;28;20053;-79
2021/11/13 15:41:53;;;;;;;38.30;15.60;;;;;;;8.34;89.74;92439.75;5026651;28;20120;-79
2021/11/13 15:44:23;;;;;;;58.08;25.15;;;;;;;8.30;89.48;92436.91;5037814;28;20069;-79
2021/11/13 15:46:48;;;;;;;54.55;20.45;;;;;;;8.30;90.36;92434.28;5031393;28;20025;-77
2021/11/13 15:49:16;;;;;;;54.55;20.45;;;;;;;8.34;89.54;92432.69;5027657;28;20506;-79
2021/11/13 15:51:43;;;;;;;50.00;19.15;;;;;;;8.26;90.39;92427.28;5035166;28;20095;-79
2021/11/13 15:54:11;;;;;;;43.03;17.15;;;;;;;8.28;90.24;92422.56;5035000;28;20025;-79
2021/11/13 15:56:46;;;;;;;59.63;19.45;;;;;;;8.24;90.38;92422.34;5033834;28;20487;-78
2021/11/13 15:59:15;;;;;;;44.10;16.95;;;;;;;8.24;90.70;92427.56;5034406;28;20037;-78
2021/11/13 16:01:44;;;;;;;41.17;17.48;;;;;;;8.26;90.52;92425.47;5034454;28;20036;-78
2021/11/13 16:04:12;;;;;;;42.22;17.15;;;;;;;8.29;90.91;92426.75;5011731;28;20034;-79
2021/11/13 16:06:43;;;;;;;39.25;17.27;;;;;;;8.27;90.61;92423.63;5028065;28;20033;-78
2021/11/13 16:09:11;;;;;;;53.45;18.23;;;;;;;8.25;90.54;92423.13;4995855;28;20042;-78